sensor_id;sensor_type;location;lat;lon;timestamp;temperature;humidity
31639;DHT22;18248;51.522;7.020;2023-01-08T00:01:08;11.20;99.90
31639;DHT22;18248;51.522;7.020;2023-01-08T00:04:07;11.20;99.90
31639;DHT22;18248;51.522;7.020;2023-01-08T00:07:06;11.30;99.90
31639;DHT22;18248;51.522;7.020;2023-01-08T00:10:04;11.30;99.90
31639;DHT22;18248;51.522;7.020;2023-01-08T00:13:04;11.30;99.90
31639;DHT22;18248;51.522;7.020;2023-01-08T00:16:09;11.30;99.90
31639;DHT22;18248;51.522;7.020;2023-01-08T00:19:10;11.30;99.90
31639;DHT22;18248;51.522;7.020;2023-01-08T00:22:10;11.30;99.90
31639;DHT22;18248;51.522;7.020;2023-01-08T00:25:09;11.30;99.90
31639;DHT22;18248;51.522;7.020;2023-01-08T00:28:07;11.30;99.90
31639;DHT22;18248;51.522;7.020;2023-01-08T00:31:08;11.30;99.90
31639;DHT22;18248;51.522;7.020;2023-01-08T00:34:07;11.30;99.90
31639;DHT22;18248;51.522;7.020;2023-01-08T00:37:06;11.40;99.90
31639;DHT22;18248;51.522;7.020;2023-01-08T00:40:05;11.40;99.90
31639;DHT22;18248;51.522;7.020;2023-01-08T00:43:05;11.40;99.90
31639;DHT22;18248;51.522;7.020;2023-01-08T00:46:05;11.40;99.90
31639;DHT22;18248;51.522;7.020;2023-01-08T00:49:03;11.40;99.90
31639;DHT22;18248;51.522;7.020;2023-01-08T00:52:03;11.40;99.90
31639;DHT22;18248;51.522;7.020;2023-01-08T00:55:03;11.40;99.90
31639;DHT22;18248;51.522;7.020;2023-01-08T00:58:02;11.40;99.90
31639;DHT22;18248;51.522;7.020;2023-01-08T01:01:01;11.40;99.90
31639;DHT22;18248;51.522;7.020;2023-01-08T01:03:59;11.40;99.90
31639;DHT22;18248;51.522;7.020;2023-01-08T01:06:58;11.40;99.90
31639;DHT22;18248;51.522;7.020;2023-01-08T01:09:56;11.40;99.90
31639;DHT22;18248;51.522;7.020;2023-01-08T01:12:55;11.40;99.90
31639;DHT22;18248;51.522;7.020;2023-01-08T01:15:58;11.40;99.90
31639;DHT22;18248;51.522;7.020;2023-01-08T01:18:58;11.40;99.90
31639;DHT22;18248;51.522;7.020;2023-01-08T01:21:57;11.40;99.90
31639;DHT22;18248;51.522;7.020;2023-01-08T01:24:56;11.40;99.90
31639;DHT22;18248;51.522;7.020;2023-01-08T01:27:55;11.40;99.90
31639;DHT22;18248;51.522;7.020;2023-01-08T01:30:55;11.40;99.90
31639;DHT22;18248;51.522;7.020;2023-01-08T01:33:53;11.40;99.90
31639;DHT22;18248;51.522;7.020;2023-01-08T01:36:52;11.40;99.90
31639;DHT22;18248;51.522;7.020;2023-01-08T01:39:50;11.40;99.90
31639;DHT22;18248;51.522;7.020;2023-01-08T01:42:49;11.40;99.90
31639;DHT22;18248;51.522;7.020;2023-01-08T01:45:47;11.40;99.90
31639;DHT22;18248;51.522;7.020;2023-01-08T01:48:50;11.40;99.90
31639;DHT22;18248;51.522;7.020;2023-01-08T01:51:54;11.40;99.90
31639;DHT22;18248;51.522;7.020;2023-01-08T01:54:53;11.40;99.90
31639;DHT22;18248;51.522;7.020;2023-01-08T01:58:03;11.40;99.90
31639;DHT22;18248;51.522;7.020;2023-01-08T02:01:05;11.40;99.90
31639;DHT22;18248;51.522;7.020;2023-01-08T02:04:09;11.40;99.90
31639;DHT22;18248;51.522;7.020;2023-01-08T02:07:28;11.40;99.90
31639;DHT22;18248;51.522;7.020;2023-01-08T02:10:40;11.40;99.90
31639;DHT22;18248;51.522;7.020;2023-01-08T02:13:47;11.40;99.90
31639;DHT22;18248;51.522;7.020;2023-01-08T02:16:57;11.40;99.90
31639;DHT22;18248;51.522;7.020;2023-01-08T02:20:06;11.40;99.90
31639;DHT22;18248;51.522;7.020;2023-01-08T02:26:34;11.40;99.90
31639;DHT22;18248;51.522;7.020;2023-01-08T02:29:33;11.30;99.90
31639;DHT22;18248;51.522;7.020;2023-01-08T02:32:36;11.30;99.90
31639;DHT22;18248;51.522;7.020;2023-01-08T02:35:41;11.40;99.90
31639;DHT22;18248;51.522;7.020;2023-01-08T02:42:05;11.30;99.90
31639;DHT22;18248;51.522;7.020;2023-01-08T02:48:52;11.40;99.90
31639;DHT22;18248;51.522;7.020;2023-01-08T02:51:53;11.30;99.90
31639;DHT22;18248;51.522;7.020;2023-01-08T02:54:54;11.30;99.90
31639;DHT22;18248;51.522;7.020;2023-01-08T02:57:52;11.30;99.90
31639;DHT22;18248;51.522;7.020;2023-01-08T03:00:52;11.30;99.90
31639;DHT22;18248;51.522;7.020;2023-01-08T03:03:58;11.30;99.90
31639;DHT22;18248;51.522;7.020;2023-01-08T03:06:57;11.30;99.90
31639;DHT22;18248;51.522;7.020;2023-01-08T03:09:56;11.30;99.90
31639;DHT22;18248;51.522;7.020;2023-01-08T03:13:03;11.30;99.90
31639;DHT22;18248;51.522;7.020;2023-01-08T03:16:09;11.30;99.90
31639;DHT22;18248;51.522;7.020;2023-01-08T03:19:26;11.30;99.90
31639;DHT22;18248;51.522;7.020;2023-01-08T03:22:26;11.30;99.90
31639;DHT22;18248;51.522;7.020;2023-01-08T03:25:27;11.30;99.90
31639;DHT22;18248;51.522;7.020;2023-01-08T03:28:34;11.30;99.90
31639;DHT22;18248;51.522;7.020;2023-01-08T03:31:34;11.30;99.90
31639;DHT22;18248;51.522;7.020;2023-01-08T03:34:36;11.30;99.90
31639;DHT22;18248;51.522;7.020;2023-01-08T03:37:39;11.30;99.90
31639;DHT22;18248;51.522;7.020;2023-01-08T03:40:43;11.30;99.90
31639;DHT22;18248;51.522;7.020;2023-01-08T03:43:43;11.30;99.90
31639;DHT22;18248;51.522;7.020;2023-01-08T03:46:46;11.30;99.90
31639;DHT22;18248;51.522;7.020;2023-01-08T03:49:48;11.30;99.90
31639;DHT22;18248;51.522;7.020;2023-01-08T03:52:47;11.30;99.90
31639;DHT22;18248;51.522;7.020;2023-01-08T03:55:46;11.30;99.90
31639;DHT22;18248;51.522;7.020;2023-01-08T03:58:45;11.40;99.90
31639;DHT22;18248;51.522;7.020;2023-01-08T04:01:44;11.40;99.90
31639;DHT22;18248;51.522;7.020;2023-01-08T04:04:44;11.40;99.90
31639;DHT22;18248;51.522;7.020;2023-01-08T04:07:43;11.40;99.90
31639;DHT22;18248;51.522;7.020;2023-01-08T04:10:42;11.40;99.90
31639;DHT22;18248;51.522;7.020;2023-01-08T04:13:41;11.40;99.90
31639;DHT22;18248;51.522;7.020;2023-01-08T04:16:39;11.40;99.90
31639;DHT22;18248;51.522;7.020;2023-01-08T04:19:38;11.40;99.90
31639;DHT22;18248;51.522;7.020;2023-01-08T04:22:37;11.40;99.90
31639;DHT22;18248;51.522;7.020;2023-01-08T04:25:36;11.30;99.90
31639;DHT22;18248;51.522;7.020;2023-01-08T04:28:35;11.40;99.90
31639;DHT22;18248;51.522;7.020;2023-01-08T04:31:34;11.40;99.90
31639;DHT22;18248;51.522;7.020;2023-01-08T04:34:32;11.40;99.90
31639;DHT22;18248;51.522;7.020;2023-01-08T04:37:31;11.40;99.90
31639;DHT22;18248;51.522;7.020;2023-01-08T04:40:33;11.40;99.90
31639;DHT22;18248;51.522;7.020;2023-01-08T04:43:32;11.40;99.90
31639;DHT22;18248;51.522;7.020;2023-01-08T04:46:31;11.40;99.90
31639;DHT22;18248;51.522;7.020;2023-01-08T04:49:29;11.40;99.90
31639;DHT22;18248;51.522;7.020;2023-01-08T04:52:28;11.30;99.90
31639;DHT22;18248;51.522;7.020;2023-01-08T04:55:26;11.30;99.90
31639;DHT22;18248;51.522;7.020;2023-01-08T04:58:25;11.30;99.90
31639;DHT22;18248;51.522;7.020;2023-01-08T05:01:26;11.30;99.90
31639;DHT22;18248;51.522;7.020;2023-01-08T05:04:24;11.30;99.90
31639;DHT22;18248;51.522;7.020;2023-01-08T05:07:23;11.20;99.90
31639;DHT22;18248;51.522;7.020;2023-01-08T05:10:22;11.20;99.90
31639;DHT22;18248;51.522;7.020;2023-01-08T05:13:20;11.20;99.90
31639;DHT22;18248;51.522;7.020;2023-01-08T05:16:19;11.20;99.90
31639;DHT22;18248;51.522;7.020;2023-01-08T05:19:18;11.20;99.90
31639;DHT22;18248;51.522;7.020;2023-01-08T05:22:16;11.10;99.90
31639;DHT22;18248;51.522;7.020;2023-01-08T05:25:15;11.10;99.90
31639;DHT22;18248;51.522;7.020;2023-01-08T05:28:13;11.10;99.90
31639;DHT22;18248;51.522;7.020;2023-01-08T05:31:12;11.10;99.90
31639;DHT22;18248;51.522;7.020;2023-01-08T05:34:10;11.20;99.90
31639;DHT22;18248;51.522;7.020;2023-01-08T05:37:09;11.10;99.90
31639;DHT22;18248;51.522;7.020;2023-01-08T05:40:08;11.20;99.90
31639;DHT22;18248;51.522;7.020;2023-01-08T05:43:07;11.20;99.90
31639;DHT22;18248;51.522;7.020;2023-01-08T05:46:05;11.20;99.90
31639;DHT22;18248;51.522;7.020;2023-01-08T05:49:04;11.20;99.90
31639;DHT22;18248;51.522;7.020;2023-01-08T05:52:03;11.20;99.90
31639;DHT22;18248;51.522;7.020;2023-01-08T05:55:01;11.20;99.90
31639;DHT22;18248;51.522;7.020;2023-01-08T05:58:04;11.10;99.90
31639;DHT22;18248;51.522;7.020;2023-01-08T06:01:06;11.10;99.90
31639;DHT22;18248;51.522;7.020;2023-01-08T06:04:04;11.10;99.90
31639;DHT22;18248;51.522;7.020;2023-01-08T06:07:03;11.00;99.90
31639;DHT22;18248;51.522;7.020;2023-01-08T06:10:02;11.00;99.90
31639;DHT22;18248;51.522;7.020;2023-01-08T06:13:00;11.00;99.90
31639;DHT22;18248;51.522;7.020;2023-01-08T06:15:59;11.00;99.90
31639;DHT22;18248;51.522;7.020;2023-01-08T06:18:58;11.00;99.90
31639;DHT22;18248;51.522;7.020;2023-01-08T06:21:58;11.00;99.90
31639;DHT22;18248;51.522;7.020;2023-01-08T06:24:56;11.00;99.90
31639;DHT22;18248;51.522;7.020;2023-01-08T06:27:55;11.00;99.90
31639;DHT22;18248;51.522;7.020;2023-01-08T06:30:57;11.00;99.90
31639;DHT22;18248;51.522;7.020;2023-01-08T06:33:56;11.00;99.90
31639;DHT22;18248;51.522;7.020;2023-01-08T06:36:55;11.00;99.90
31639;DHT22;18248;51.522;7.020;2023-01-08T06:39:54;11.10;99.90
31639;DHT22;18248;51.522;7.020;2023-01-08T06:42:53;11.10;99.90
31639;DHT22;18248;51.522;7.020;2023-01-08T06:45:53;11.10;99.90
31639;DHT22;18248;51.522;7.020;2023-01-08T06:48:52;11.10;99.90
31639;DHT22;18248;51.522;7.020;2023-01-08T06:51:50;11.10;99.90
31639;DHT22;18248;51.522;7.020;2023-01-08T06:54:49;11.20;99.90
31639;DHT22;18248;51.522;7.020;2023-01-08T06:57:51;11.20;99.90
31639;DHT22;18248;51.522;7.020;2023-01-08T07:00:50;11.10;99.90
31639;DHT22;18248;51.522;7.020;2023-01-08T07:03:49;10.90;99.90
31639;DHT22;18248;51.522;7.020;2023-01-08T07:06:48;10.70;99.90
31639;DHT22;18248;51.522;7.020;2023-01-08T07:09:48;10.60;99.90
31639;DHT22;18248;51.522;7.020;2023-01-08T07:12:47;10.50;99.90
31639;DHT22;18248;51.522;7.020;2023-01-08T07:15:45;10.40;99.90
31639;DHT22;18248;51.522;7.020;2023-01-08T07:18:44;10.30;99.90
31639;DHT22;18248;51.522;7.020;2023-01-08T07:21:43;10.30;99.90
31639;DHT22;18248;51.522;7.020;2023-01-08T07:24:41;10.20;99.90
31639;DHT22;18248;51.522;7.020;2023-01-08T07:27:40;10.10;99.90
31639;DHT22;18248;51.522;7.020;2023-01-08T07:30:39;10.10;99.90
31639;DHT22;18248;51.522;7.020;2023-01-08T07:33:37;10.10;99.90
31639;DHT22;18248;51.522;7.020;2023-01-08T07:36:36;10.10;99.90
31639;DHT22;18248;51.522;7.020;2023-01-08T07:39:34;10.00;99.90
31639;DHT22;18248;51.522;7.020;2023-01-08T07:42:33;10.00;99.90
31639;DHT22;18248;51.522;7.020;2023-01-08T07:45:32;10.00;99.90
31639;DHT22;18248;51.522;7.020;2023-01-08T07:48:31;10.00;99.90
31639;DHT22;18248;51.522;7.020;2023-01-08T07:51:29;9.90;99.90
31639;DHT22;18248;51.522;7.020;2023-01-08T07:54:28;9.90;99.90
31639;DHT22;18248;51.522;7.020;2023-01-08T07:57:28;9.90;99.90
31639;DHT22;18248;51.522;7.020;2023-01-08T08:00:26;9.80;99.90
31639;DHT22;18248;51.522;7.020;2023-01-08T08:03:26;9.80;99.90
31639;DHT22;18248;51.522;7.020;2023-01-08T08:06:25;9.80;99.90
31639;DHT22;18248;51.522;7.020;2023-01-08T08:09:24;9.80;99.90
31639;DHT22;18248;51.522;7.020;2023-01-08T08:12:22;9.80;99.90
31639;DHT22;18248;51.522;7.020;2023-01-08T08:15:21;9.80;99.90
31639;DHT22;18248;51.522;7.020;2023-01-08T08:18:19;9.80;99.90
31639;DHT22;18248;51.522;7.020;2023-01-08T08:21:18;9.70;99.90
31639;DHT22;18248;51.522;7.020;2023-01-08T08:24:17;9.70;99.90
31639;DHT22;18248;51.522;7.020;2023-01-08T08:27:16;9.60;99.90
31639;DHT22;18248;51.522;7.020;2023-01-08T08:30:14;9.60;99.90
31639;DHT22;18248;51.522;7.020;2023-01-08T08:33:15;9.60;99.90
31639;DHT22;18248;51.522;7.020;2023-01-08T08:36:13;9.60;99.90
31639;DHT22;18248;51.522;7.020;2023-01-08T08:39:12;9.50;99.90
31639;DHT22;18248;51.522;7.020;2023-01-08T08:42:11;9.50;99.90
31639;DHT22;18248;51.522;7.020;2023-01-08T08:45:09;9.50;99.90
31639;DHT22;18248;51.522;7.020;2023-01-08T08:48:08;9.40;99.90
31639;DHT22;18248;51.522;7.020;2023-01-08T08:51:06;9.40;99.90
31639;DHT22;18248;51.522;7.020;2023-01-08T08:54:05;9.30;99.90
31639;DHT22;18248;51.522;7.020;2023-01-08T08:57:03;9.30;99.90
31639;DHT22;18248;51.522;7.020;2023-01-08T09:00:02;9.30;99.90
31639;DHT22;18248;51.522;7.020;2023-01-08T09:03:01;9.30;99.90
31639;DHT22;18248;51.522;7.020;2023-01-08T09:05:59;9.30;99.90
31639;DHT22;18248;51.522;7.020;2023-01-08T09:08:58;9.30;99.90
31639;DHT22;18248;51.522;7.020;2023-01-08T09:11:57;9.30;99.90
31639;DHT22;18248;51.522;7.020;2023-01-08T09:14:57;9.30;99.90
31639;DHT22;18248;51.522;7.020;2023-01-08T09:17:57;9.30;99.90
31639;DHT22;18248;51.522;7.020;2023-01-08T09:20:55;9.30;99.90
31639;DHT22;18248;51.522;7.020;2023-01-08T09:23:54;9.40;99.90
31639;DHT22;18248;51.522;7.020;2023-01-08T09:26:53;9.40;99.90
31639;DHT22;18248;51.522;7.020;2023-01-08T09:29:51;9.40;99.90
31639;DHT22;18248;51.522;7.020;2023-01-08T09:32:55;9.50;99.90
31639;DHT22;18248;51.522;7.020;2023-01-08T09:35:54;9.50;99.90
31639;DHT22;18248;51.522;7.020;2023-01-08T09:38:54;9.60;99.90
31639;DHT22;18248;51.522;7.020;2023-01-08T09:41:53;9.60;99.90
31639;DHT22;18248;51.522;7.020;2023-01-08T09:44:54;9.60;99.90
31639;DHT22;18248;51.522;7.020;2023-01-08T09:47:56;9.70;99.90
31639;DHT22;18248;51.522;7.020;2023-01-08T09:50:56;9.80;99.90
31639;DHT22;18248;51.522;7.020;2023-01-08T09:53:56;9.90;99.90
31639;DHT22;18248;51.522;7.020;2023-01-08T09:56:57;10.00;99.90
31639;DHT22;18248;51.522;7.020;2023-01-08T09:59:57;10.10;99.90
31639;DHT22;18248;51.522;7.020;2023-01-08T10:02:56;10.20;99.90
31639;DHT22;18248;51.522;7.020;2023-01-08T10:05:55;10.40;99.90
31639;DHT22;18248;51.522;7.020;2023-01-08T10:08:54;10.50;99.90
31639;DHT22;18248;51.522;7.020;2023-01-08T10:11:54;10.60;99.90
31639;DHT22;18248;51.522;7.020;2023-01-08T10:15:02;10.80;99.90
31639;DHT22;18248;51.522;7.020;2023-01-08T10:18:09;10.80;99.90
31639;DHT22;18248;51.522;7.020;2023-01-08T10:21:12;10.80;99.90
31639;DHT22;18248;51.522;7.020;2023-01-08T10:24:11;10.80;99.90
31639;DHT22;18248;51.522;7.020;2023-01-08T10:27:16;10.90;99.90
31639;DHT22;18248;51.522;7.020;2023-01-08T10:30:32;11.10;99.90
31639;DHT22;18248;51.522;7.020;2023-01-08T10:33:46;11.20;99.90
31639;DHT22;18248;51.522;7.020;2023-01-08T10:36:46;11.30;99.90
31639;DHT22;18248;51.522;7.020;2023-01-08T10:39:46;11.40;99.90
31639;DHT22;18248;51.522;7.020;2023-01-08T10:42:45;11.50;99.90
31639;DHT22;18248;51.522;7.020;2023-01-08T10:45:55;11.60;99.90
31639;DHT22;18248;51.522;7.020;2023-01-08T10:49:00;11.80;99.90
31639;DHT22;18248;51.522;7.020;2023-01-08T10:52:00;11.80;99.90
31639;DHT22;18248;51.522;7.020;2023-01-08T10:55:22;12.00;99.90
31639;DHT22;18248;51.522;7.020;2023-01-08T10:58:21;12.00;99.90
31639;DHT22;18248;51.522;7.020;2023-01-08T11:01:25;12.10;99.90
31639;DHT22;18248;51.522;7.020;2023-01-08T11:04:33;12.20;99.90
31639;DHT22;18248;51.522;7.020;2023-01-08T11:07:33;12.30;99.90
31639;DHT22;18248;51.522;7.020;2023-01-08T11:10:35;12.50;99.90
31639;DHT22;18248;51.522;7.020;2023-01-08T11:13:34;12.70;99.90
31639;DHT22;18248;51.522;7.020;2023-01-08T11:16:35;13.00;99.90
31639;DHT22;18248;51.522;7.020;2023-01-08T11:19:34;13.10;99.90
31639;DHT22;18248;51.522;7.020;2023-01-08T11:22:33;13.10;99.90
31639;DHT22;18248;51.522;7.020;2023-01-08T11:25:33;13.00;99.90
31639;DHT22;18248;51.522;7.020;2023-01-08T11:28:48;12.90;99.90
31639;DHT22;18248;51.522;7.020;2023-01-08T11:35:18;12.80;99.90
31639;DHT22;18248;51.522;7.020;2023-01-08T11:38:17;12.80;99.90
31639;DHT22;18248;51.522;7.020;2023-01-08T11:41:43;12.80;99.90
31639;DHT22;18248;51.522;7.020;2023-01-08T11:51:38;12.60;99.90
31639;DHT22;18248;51.522;7.020;2023-01-08T12:07:43;12.40;99.90
31639;DHT22;18248;51.522;7.020;2023-01-08T12:11:06;12.40;99.90
31639;DHT22;18248;51.522;7.020;2023-01-08T12:18:02;12.30;99.90
31639;DHT22;18248;51.522;7.020;2023-01-08T12:21:13;12.30;99.90
31639;DHT22;18248;51.522;7.020;2023-01-08T12:24:48;12.30;99.90
31639;DHT22;18248;51.522;7.020;2023-01-08T12:28:24;12.30;99.90
31639;DHT22;18248;51.522;7.020;2023-01-08T12:32:07;12.20;99.90
31639;DHT22;18248;51.522;7.020;2023-01-08T12:38:25;11.20;99.90
31639;DHT22;18248;51.522;7.020;2023-01-08T12:41:26;10.90;99.90
31639;DHT22;18248;51.522;7.020;2023-01-08T12:44:27;10.70;99.90
31639;DHT22;18248;51.522;7.020;2023-01-08T12:47:29;10.50;99.90
31639;DHT22;18248;51.522;7.020;2023-01-08T12:57:11;10.40;99.90
31639;DHT22;18248;51.522;7.020;2023-01-08T13:00:21;10.40;99.90
31639;DHT22;18248;51.522;7.020;2023-01-08T13:03:26;10.60;99.90
31639;DHT22;18248;51.522;7.020;2023-01-08T13:06:28;10.80;99.90
31639;DHT22;18248;51.522;7.020;2023-01-08T13:09:28;10.80;99.90
31639;DHT22;18248;51.522;7.020;2023-01-08T13:12:36;10.90;99.90
31639;DHT22;18248;51.522;7.020;2023-01-08T13:15:36;10.90;99.90
31639;DHT22;18248;51.522;7.020;2023-01-08T13:18:35;11.00;99.90
31639;DHT22;18248;51.522;7.020;2023-01-08T13:21:41;11.00;99.90
31639;DHT22;18248;51.522;7.020;2023-01-08T13:24:42;11.00;99.90
31639;DHT22;18248;51.522;7.020;2023-01-08T13:27:42;11.00;99.90
31639;DHT22;18248;51.522;7.020;2023-01-08T13:30:42;11.10;99.90
31639;DHT22;18248;51.522;7.020;2023-01-08T13:33:43;11.10;99.90
31639;DHT22;18248;51.522;7.020;2023-01-08T13:36:55;11.20;99.90
31639;DHT22;18248;51.522;7.020;2023-01-08T13:39:53;11.20;99.90
31639;DHT22;18248;51.522;7.020;2023-01-08T13:42:52;11.20;99.90
31639;DHT22;18248;51.522;7.020;2023-01-08T13:49:07;11.30;99.90
31639;DHT22;18248;51.522;7.020;2023-01-08T13:52:32;11.30;99.90
31639;DHT22;18248;51.522;7.020;2023-01-08T13:55:35;11.40;99.90
31639;DHT22;18248;51.522;7.020;2023-01-08T13:58:45;11.40;99.90
31639;DHT22;18248;51.522;7.020;2023-01-08T14:01:53;11.40;99.90
31639;DHT22;18248;51.522;7.020;2023-01-08T14:04:53;11.40;99.90
31639;DHT22;18248;51.522;7.020;2023-01-08T14:07:52;11.50;99.90
31639;DHT22;18248;51.522;7.020;2023-01-08T14:10:52;11.50;99.90
31639;DHT22;18248;51.522;7.020;2023-01-08T14:13:51;11.40;99.90
31639;DHT22;18248;51.522;7.020;2023-01-08T14:16:51;11.30;99.90
31639;DHT22;18248;51.522;7.020;2023-01-08T14:19:51;11.20;99.90
31639;DHT22;18248;51.522;7.020;2023-01-08T14:22:50;11.20;99.90
31639;DHT22;18248;51.522;7.020;2023-01-08T14:25:49;11.10;99.90
31639;DHT22;18248;51.522;7.020;2023-01-08T14:28:51;11.10;99.90
31639;DHT22;18248;51.522;7.020;2023-01-08T14:31:53;11.10;99.90
31639;DHT22;18248;51.522;7.020;2023-01-08T14:34:52;11.10;99.90
31639;DHT22;18248;51.522;7.020;2023-01-08T14:37:52;11.10;99.90
31639;DHT22;18248;51.522;7.020;2023-01-08T14:41:06;11.10;99.90
31639;DHT22;18248;51.522;7.020;2023-01-08T14:44:05;11.10;99.90
31639;DHT22;18248;51.522;7.020;2023-01-08T14:47:17;11.00;99.90
31639;DHT22;18248;51.522;7.020;2023-01-08T14:53:32;11.00;99.90
31639;DHT22;18248;51.522;7.020;2023-01-08T14:56:34;11.00;99.90
31639;DHT22;18248;51.522;7.020;2023-01-08T14:59:35;10.90;99.90
31639;DHT22;18248;51.522;7.020;2023-01-08T15:02:37;10.90;99.90
31639;DHT22;18248;51.522;7.020;2023-01-08T15:05:36;10.80;99.90
31639;DHT22;18248;51.522;7.020;2023-01-08T15:08:45;10.80;99.90
31639;DHT22;18248;51.522;7.020;2023-01-08T15:12:36;10.70;99.90
31639;DHT22;18248;51.522;7.020;2023-01-08T15:15:22;10.70;99.90
31639;DHT22;18248;51.522;7.020;2023-01-08T15:18:23;10.70;99.90
31639;DHT22;18248;51.522;7.020;2023-01-08T15:21:22;10.60;99.90
31639;DHT22;18248;51.522;7.020;2023-01-08T15:24:26;10.60;99.90
31639;DHT22;18248;51.522;7.020;2023-01-08T15:27:26;10.50;99.90
31639;DHT22;18248;51.522;7.020;2023-01-08T15:30:43;10.50;99.90
31639;DHT22;18248;51.522;7.020;2023-01-08T15:33:43;10.50;99.90
31639;DHT22;18248;51.522;7.020;2023-01-08T15:36:42;10.50;99.90
31639;DHT22;18248;51.522;7.020;2023-01-08T15:39:41;10.40;99.90
31639;DHT22;18248;51.522;7.020;2023-01-08T15:42:42;10.50;99.90
31639;DHT22;18248;51.522;7.020;2023-01-08T15:45:59;10.40;99.90
31639;DHT22;18248;51.522;7.020;2023-01-08T15:48:59;10.30;99.90
31639;DHT22;18248;51.522;7.020;2023-01-08T15:51:58;10.20;99.90
31639;DHT22;18248;51.522;7.020;2023-01-08T15:54:58;10.20;99.90
31639;DHT22;18248;51.522;7.020;2023-01-08T15:57:58;10.20;99.90
31639;DHT22;18248;51.522;7.020;2023-01-08T16:00:57;10.10;99.90
31639;DHT22;18248;51.522;7.020;2023-01-08T16:03:57;10.10;99.90
31639;DHT22;18248;51.522;7.020;2023-01-08T16:06:56;10.10;99.90
31639;DHT22;18248;51.522;7.020;2023-01-08T16:09:54;10.00;99.90
31639;DHT22;18248;51.522;7.020;2023-01-08T16:12:53;10.10;99.90
31639;DHT22;18248;51.522;7.020;2023-01-08T16:15:51;10.10;99.90
31639;DHT22;18248;51.522;7.020;2023-01-08T16:18:50;10.10;99.90
31639;DHT22;18248;51.522;7.020;2023-01-08T16:21:49;10.10;99.90
31639;DHT22;18248;51.522;7.020;2023-01-08T16:24:48;10.20;99.90
31639;DHT22;18248;51.522;7.020;2023-01-08T16:27:46;10.20;99.90
31639;DHT22;18248;51.522;7.020;2023-01-08T16:30:45;10.20;99.90
31639;DHT22;18248;51.522;7.020;2023-01-08T16:33:43;10.20;99.90
31639;DHT22;18248;51.522;7.020;2023-01-08T16:36:42;10.30;99.90
31639;DHT22;18248;51.522;7.020;2023-01-08T16:39:41;10.30;99.90
31639;DHT22;18248;51.522;7.020;2023-01-08T16:42:39;10.30;99.90
31639;DHT22;18248;51.522;7.020;2023-01-08T16:45:44;10.30;99.90
31639;DHT22;18248;51.522;7.020;2023-01-08T16:48:45;10.30;99.90
31639;DHT22;18248;51.522;7.020;2023-01-08T16:51:44;10.30;99.90
31639;DHT22;18248;51.522;7.020;2023-01-08T16:54:43;10.30;99.90
31639;DHT22;18248;51.522;7.020;2023-01-08T16:57:41;10.40;99.90
31639;DHT22;18248;51.522;7.020;2023-01-08T17:00:40;10.30;99.90
31639;DHT22;18248;51.522;7.020;2023-01-08T17:03:38;10.30;99.90
31639;DHT22;18248;51.522;7.020;2023-01-08T17:06:38;10.30;99.90
31639;DHT22;18248;51.522;7.020;2023-01-08T17:09:37;10.30;99.90
31639;DHT22;18248;51.522;7.020;2023-01-08T17:12:37;10.20;99.90
31639;DHT22;18248;51.522;7.020;2023-01-08T17:15:36;10.20;99.90
31639;DHT22;18248;51.522;7.020;2023-01-08T17:18:36;10.20;99.90
31639;DHT22;18248;51.522;7.020;2023-01-08T17:21:35;10.20;99.90
31639;DHT22;18248;51.522;7.020;2023-01-08T17:24:33;10.20;99.90
31639;DHT22;18248;51.522;7.020;2023-01-08T17:27:35;10.20;99.90
31639;DHT22;18248;51.522;7.020;2023-01-08T17:30:34;10.10;99.90
31639;DHT22;18248;51.522;7.020;2023-01-08T17:33:33;10.00;99.90
31639;DHT22;18248;51.522;7.020;2023-01-08T17:36:32;10.00;99.90
31639;DHT22;18248;51.522;7.020;2023-01-08T17:39:31;10.00;99.90
31639;DHT22;18248;51.522;7.020;2023-01-08T17:42:31;10.00;99.90
31639;DHT22;18248;51.522;7.020;2023-01-08T17:45:29;10.00;99.90
31639;DHT22;18248;51.522;7.020;2023-01-08T17:48:29;10.00;99.90
31639;DHT22;18248;51.522;7.020;2023-01-08T17:51:28;9.90;99.90
31639;DHT22;18248;51.522;7.020;2023-01-08T17:54:27;9.90;99.90
31639;DHT22;18248;51.522;7.020;2023-01-08T17:57:26;9.80;99.90
31639;DHT22;18248;51.522;7.020;2023-01-08T18:00:28;9.80;99.90
31639;DHT22;18248;51.522;7.020;2023-01-08T18:03:27;9.80;99.90
31639;DHT22;18248;51.522;7.020;2023-01-08T18:06:25;9.80;99.90
31639;DHT22;18248;51.522;7.020;2023-01-08T18:09:24;9.80;99.90
31639;DHT22;18248;51.522;7.020;2023-01-08T18:12:24;9.80;99.90
31639;DHT22;18248;51.522;7.020;2023-01-08T18:15:22;9.70;99.90
31639;DHT22;18248;51.522;7.020;2023-01-08T18:18:21;9.70;99.90
31639;DHT22;18248;51.522;7.020;2023-01-08T18:21:20;9.60;99.90
31639;DHT22;18248;51.522;7.020;2023-01-08T18:24:19;9.60;99.90
31639;DHT22;18248;51.522;7.020;2023-01-08T18:27:18;9.60;99.90
31639;DHT22;18248;51.522;7.020;2023-01-08T18:30:16;9.50;99.90
31639;DHT22;18248;51.522;7.020;2023-01-08T18:33:15;9.50;99.90
31639;DHT22;18248;51.522;7.020;2023-01-08T18:36:15;9.40;99.90
31639;DHT22;18248;51.522;7.020;2023-01-08T18:39:13;9.40;99.90
31639;DHT22;18248;51.522;7.020;2023-01-08T18:42:12;9.40;99.90
31639;DHT22;18248;51.522;7.020;2023-01-08T18:45:22;9.40;99.90
31639;DHT22;18248;51.522;7.020;2023-01-08T18:48:21;9.40;99.90
31639;DHT22;18248;51.522;7.020;2023-01-08T18:51:20;9.40;99.90
31639;DHT22;18248;51.522;7.020;2023-01-08T18:54:20;9.40;99.90
31639;DHT22;18248;51.522;7.020;2023-01-08T18:57:18;9.40;99.90
31639;DHT22;18248;51.522;7.020;2023-01-08T19:00:17;9.30;99.90
31639;DHT22;18248;51.522;7.020;2023-01-08T19:03:16;9.40;99.90
31639;DHT22;18248;51.522;7.020;2023-01-08T19:06:15;9.40;99.90
31639;DHT22;18248;51.522;7.020;2023-01-08T19:09:14;9.40;99.90
31639;DHT22;18248;51.522;7.020;2023-01-08T19:12:13;9.40;99.90
31639;DHT22;18248;51.522;7.020;2023-01-08T19:15:12;9.40;99.90
31639;DHT22;18248;51.522;7.020;2023-01-08T19:18:11;9.40;99.90
31639;DHT22;18248;51.522;7.020;2023-01-08T19:21:10;9.40;99.90
31639;DHT22;18248;51.522;7.020;2023-01-08T19:24:12;9.40;99.90
31639;DHT22;18248;51.522;7.020;2023-01-08T19:27:11;9.40;99.90
31639;DHT22;18248;51.522;7.020;2023-01-08T19:30:10;9.40;99.90
31639;DHT22;18248;51.522;7.020;2023-01-08T19:33:09;9.40;99.90
31639;DHT22;18248;51.522;7.020;2023-01-08T19:36:09;9.50;99.90
31639;DHT22;18248;51.522;7.020;2023-01-08T19:39:13;9.50;99.90
31639;DHT22;18248;51.522;7.020;2023-01-08T19:42:11;9.50;99.90
31639;DHT22;18248;51.522;7.020;2023-01-08T19:45:28;9.50;99.90
31639;DHT22;18248;51.522;7.020;2023-01-08T19:48:29;9.60;99.90
31639;DHT22;18248;51.522;7.020;2023-01-08T19:51:31;9.60;99.90
31639;DHT22;18248;51.522;7.020;2023-01-08T19:54:30;9.60;99.90
31639;DHT22;18248;51.522;7.020;2023-01-08T19:57:28;9.70;99.90
31639;DHT22;18248;51.522;7.020;2023-01-08T20:00:27;9.60;99.90
31639;DHT22;18248;51.522;7.020;2023-01-08T20:03:26;9.70;99.90